sensor_id;sensor_type;location;lat;lon;timestamp;P1;durP1;ratioP1;P2;durP2;ratioP2
70967;SDS011;58629;48.808;8.820;2023-02-13T00:01:31;15.45;;;7.60;;
70967;SDS011;58629;48.808;8.820;2023-02-13T00:03:58;12.75;;;6.32;;
70967;SDS011;58629;48.808;8.820;2023-02-13T00:06:23;12.10;;;6.23;;
70967;SDS011;58629;48.808;8.820;2023-02-13T00:08:49;14.17;;;7.20;;
70967;SDS011;58629;48.808;8.820;2023-02-13T00:11:14;13.10;;;6.03;;
70967;SDS011;58629;48.808;8.820;2023-02-13T00:13:40;13.20;;;6.57;;
70967;SDS011;58629;48.808;8.820;2023-02-13T00:16:05;13.82;;;6.93;;
70967;SDS011;58629;48.808;8.820;2023-02-13T00:18:35;13.87;;;6.57;;
70967;SDS011;58629;48.808;8.820;2023-02-13T00:21:06;11.27;;;5.70;;
70967;SDS011;58629;48.808;8.820;2023-02-13T00:23:36;13.77;;;6.35;;
70967;SDS011;58629;48.808;8.820;2023-02-13T00:26:10;11.57;;;5.72;;
70967;SDS011;58629;48.808;8.820;2023-02-13T00:28:37;11.88;;;5.47;;
70967;SDS011;58629;48.808;8.820;2023-02-13T00:31:03;10.63;;;5.10;;
70967;SDS011;58629;48.808;8.820;2023-02-13T00:33:30;9.90;;;4.65;;
70967;SDS011;58629;48.808;8.820;2023-02-13T00:36:09;12.23;;;5.40;;
70967;SDS011;58629;48.808;8.820;2023-02-13T00:38:36;11.70;;;5.32;;
70967;SDS011;58629;48.808;8.820;2023-02-13T00:41:03;13.65;;;6.45;;
70967;SDS011;58629;48.808;8.820;2023-02-13T00:43:29;14.17;;;7.53;;
70967;SDS011;58629;48.808;8.820;2023-02-13T00:45:55;14.88;;;7.07;;
70967;SDS011;58629;48.808;8.820;2023-02-13T00:48:22;19.73;;;8.50;;
70967;SDS011;58629;48.808;8.820;2023-02-13T00:50:47;18.80;;;8.70;;
70967;SDS011;58629;48.808;8.820;2023-02-13T00:53:13;17.27;;;8.13;;
70967;SDS011;58629;48.808;8.820;2023-02-13T00:55:38;15.60;;;7.50;;
70967;SDS011;58629;48.808;8.820;2023-02-13T00:58:03;17.17;;;8.03;;
70967;SDS011;58629;48.808;8.820;2023-02-13T01:00:29;15.87;;;7.53;;
70967;SDS011;58629;48.808;8.820;2023-02-13T01:02:54;15.10;;;7.70;;
70967;SDS011;58629;48.808;8.820;2023-02-13T01:05:19;15.50;;;7.57;;
70967;SDS011;58629;48.808;8.820;2023-02-13T01:07:44;13.30;;;6.83;;
70967;SDS011;58629;48.808;8.820;2023-02-13T01:10:10;15.30;;;7.60;;
70967;SDS011;58629;48.808;8.820;2023-02-13T01:12:35;16.27;;;7.77;;
70967;SDS011;58629;48.808;8.820;2023-02-13T01:15:01;13.33;;;6.97;;
70967;SDS011;58629;48.808;8.820;2023-02-13T01:17:27;14.55;;;6.90;;
70967;SDS011;58629;48.808;8.820;2023-02-13T01:19:52;13.03;;;6.27;;
70967;SDS011;58629;48.808;8.820;2023-02-13T01:22:17;11.63;;;5.90;;
70967;SDS011;58629;48.808;8.820;2023-02-13T01:24:43;12.30;;;6.10;;
70967;SDS011;58629;48.808;8.820;2023-02-13T01:27:08;13.30;;;6.10;;
70967;SDS011;58629;48.808;8.820;2023-02-13T01:29:33;15.30;;;7.30;;
70967;SDS011;58629;48.808;8.820;2023-02-13T01:31:58;14.47;;;7.27;;
70967;SDS011;58629;48.808;8.820;2023-02-13T01:34:26;14.07;;;6.82;;
70967;SDS011;58629;48.808;8.820;2023-02-13T01:36:51;14.53;;;6.90;;
70967;SDS011;58629;48.808;8.820;2023-02-13T01:39:16;15.90;;;6.70;;
70967;SDS011;58629;48.808;8.820;2023-02-13T01:41:42;17.00;;;7.47;;
70967;SDS011;58629;48.808;8.820;2023-02-13T01:47:09;17.70;;;7.75;;
70967;SDS011;58629;48.808;8.820;2023-02-13T01:49:36;15.25;;;7.18;;
70967;SDS011;58629;48.808;8.820;2023-02-13T01:52:03;13.45;;;6.75;;
70967;SDS011;58629;48.808;8.820;2023-02-13T01:54:29;14.80;;;6.80;;
70967;SDS011;58629;48.808;8.820;2023-02-13T01:56:59;13.00;;;6.05;;
70967;SDS011;58629;48.808;8.820;2023-02-13T01:59:33;12.68;;;5.78;;
70967;SDS011;58629;48.808;8.820;2023-02-13T02:02:05;12.40;;;5.80;;
70967;SDS011;58629;48.808;8.820;2023-02-13T02:04:31;12.05;;;5.80;;
70967;SDS011;58629;48.808;8.820;2023-02-13T02:07:07;11.07;;;5.53;;
70967;SDS011;58629;48.808;8.820;2023-02-13T02:09:38;10.63;;;5.05;;
70967;SDS011;58629;48.808;8.820;2023-02-13T02:12:13;10.90;;;5.18;;
70967;SDS011;58629;48.808;8.820;2023-02-13T02:14:46;11.90;;;5.43;;
70967;SDS011;58629;48.808;8.820;2023-02-13T02:17:13;12.75;;;5.65;;
70967;SDS011;58629;48.808;8.820;2023-02-13T02:22:48;11.15;;;5.38;;
70967;SDS011;58629;48.808;8.820;2023-02-13T02:34:23;12.87;;;5.93;;
70967;SDS011;58629;48.808;8.820;2023-02-13T02:54:12;12.10;;;5.82;;
70967;SDS011;58629;48.808;8.820;2023-02-13T02:57:19;12.02;;;5.72;;
70967;SDS011;58629;48.808;8.820;2023-02-13T02:59:48;10.25;;;5.30;;
70967;SDS011;58629;48.808;8.820;2023-02-13T03:02:34;11.70;;;5.50;;
70967;SDS011;58629;48.808;8.820;2023-02-13T03:05:24;12.20;;;5.60;;
70967;SDS011;58629;48.808;8.820;2023-02-13T03:08:12;11.85;;;5.63;;
70967;SDS011;58629;48.808;8.820;2023-02-13T03:10:38;12.00;;;5.68;;
70967;SDS011;58629;48.808;8.820;2023-02-13T03:13:34;11.50;;;5.35;;
70967;SDS011;58629;48.808;8.820;2023-02-13T03:16:04;12.27;;;5.67;;
70967;SDS011;58629;48.808;8.820;2023-02-13T03:18:50;15.07;;;6.40;;
70967;SDS011;58629;48.808;8.820;2023-02-13T03:25:02;13.68;;;5.85;;
70967;SDS011;58629;48.808;8.820;2023-02-13T03:33:24;14.00;;;5.95;;
70967;SDS011;58629;48.808;8.820;2023-02-13T03:39:08;15.27;;;6.22;;
70967;SDS011;58629;48.808;8.820;2023-02-13T03:41:45;12.07;;;5.57;;
70967;SDS011;58629;48.808;8.820;2023-02-13T03:44:30;10.03;;;5.17;;
70967;SDS011;58629;48.808;8.820;2023-02-13T03:46:58;13.23;;;6.20;;
70967;SDS011;58629;48.808;8.820;2023-02-13T03:49:29;14.63;;;6.65;;
70967;SDS011;58629;48.808;8.820;2023-02-13T03:55:06;15.07;;;5.93;;
70967;SDS011;58629;48.808;8.820;2023-02-13T03:57:57;12.73;;;5.90;;
70967;SDS011;58629;48.808;8.820;2023-02-13T04:00:46;13.95;;;6.13;;
70967;SDS011;58629;48.808;8.820;2023-02-13T04:03:26;14.13;;;6.30;;
70967;SDS011;58629;48.808;8.820;2023-02-13T04:05:57;12.65;;;5.78;;
70967;SDS011;58629;48.808;8.820;2023-02-13T04:08:28;13.88;;;6.07;;
70967;SDS011;58629;48.808;8.820;2023-02-13T04:10:56;11.77;;;5.00;;
70967;SDS011;58629;48.808;8.820;2023-02-13T04:13:33;12.27;;;5.70;;
70967;SDS011;58629;48.808;8.820;2023-02-13T04:16:08;12.20;;;5.70;;
70967;SDS011;58629;48.808;8.820;2023-02-13T04:18:35;16.05;;;7.18;;
70967;SDS011;58629;48.808;8.820;2023-02-13T04:21:03;15.93;;;7.20;;
70967;SDS011;58629;48.808;8.820;2023-02-13T04:23:30;19.52;;;7.45;;
70967;SDS011;58629;48.808;8.820;2023-02-13T04:25:55;14.77;;;7.50;;
70967;SDS011;58629;48.808;8.820;2023-02-13T04:28:22;15.15;;;6.90;;
70967;SDS011;58629;48.808;8.820;2023-02-13T04:30:47;12.87;;;6.03;;
70967;SDS011;58629;48.808;8.820;2023-02-13T04:33:13;13.35;;;5.97;;
70967;SDS011;58629;48.808;8.820;2023-02-13T04:35:39;12.90;;;6.33;;
70967;SDS011;58629;48.808;8.820;2023-02-13T04:38:04;15.30;;;7.00;;
70967;SDS011;58629;48.808;8.820;2023-02-13T04:40:30;14.97;;;6.40;;
70967;SDS011;58629;48.808;8.820;2023-02-13T04:42:55;14.30;;;6.43;;
70967;SDS011;58629;48.808;8.820;2023-02-13T04:45:20;13.27;;;6.03;;
70967;SDS011;58629;48.808;8.820;2023-02-13T04:47:52;12.40;;;5.70;;
70967;SDS011;58629;48.808;8.820;2023-02-13T04:50:18;11.27;;;5.10;;
70967;SDS011;58629;48.808;8.820;2023-02-13T04:52:44;12.45;;;5.07;;
70967;SDS011;58629;48.808;8.820;2023-02-13T04:55:10;12.33;;;5.00;;
70967;SDS011;58629;48.808;8.820;2023-02-13T04:57:35;11.93;;;5.37;;
70967;SDS011;58629;48.808;8.820;2023-02-13T05:00:01;13.75;;;5.68;;
70967;SDS011;58629;48.808;8.820;2023-02-13T05:02:26;13.15;;;5.70;;
70967;SDS011;58629;48.808;8.820;2023-02-13T05:04:52;14.13;;;6.47;;
70967;SDS011;58629;48.808;8.820;2023-02-13T05:07:17;13.07;;;5.63;;
70967;SDS011;58629;48.808;8.820;2023-02-13T05:09:42;15.53;;;6.87;;
70967;SDS011;58629;48.808;8.820;2023-02-13T05:12:07;16.77;;;6.90;;
70967;SDS011;58629;48.808;8.820;2023-02-13T05:14:33;13.60;;;6.00;;
70967;SDS011;58629;48.808;8.820;2023-02-13T05:16:58;14.35;;;6.22;;
70967;SDS011;58629;48.808;8.820;2023-02-13T05:19:24;15.83;;;6.80;;
70967;SDS011;58629;48.808;8.820;2023-02-13T05:21:49;15.13;;;6.20;;
70967;SDS011;58629;48.808;8.820;2023-02-13T05:24:33;13.20;;;5.38;;
70967;SDS011;58629;48.808;8.820;2023-02-13T05:26:58;13.97;;;6.13;;
70967;SDS011;58629;48.808;8.820;2023-02-13T05:29:23;14.57;;;6.30;;
70967;SDS011;58629;48.808;8.820;2023-02-13T05:31:50;12.73;;;5.50;;
70967;SDS011;58629;48.808;8.820;2023-02-13T05:34:25;13.13;;;5.63;;
70967;SDS011;58629;48.808;8.820;2023-02-13T05:36:51;12.03;;;5.33;;
70967;SDS011;58629;48.808;8.820;2023-02-13T05:39:16;11.63;;;5.10;;
70967;SDS011;58629;48.808;8.820;2023-02-13T05:41:43;11.37;;;5.20;;
70967;SDS011;58629;48.808;8.820;2023-02-13T05:44:09;11.38;;;4.97;;
70967;SDS011;58629;48.808;8.820;2023-02-13T05:46:35;15.10;;;6.50;;
70967;SDS011;58629;48.808;8.820;2023-02-13T05:49:02;18.63;;;8.18;;
70967;SDS011;58629;48.808;8.820;2023-02-13T05:51:27;21.67;;;9.07;;
70967;SDS011;58629;48.808;8.820;2023-02-13T05:53:53;20.70;;;8.82;;
70967;SDS011;58629;48.808;8.820;2023-02-13T05:56:18;19.17;;;8.53;;
70967;SDS011;58629;48.808;8.820;2023-02-13T05:58:43;18.80;;;8.30;;
70967;SDS011;58629;48.808;8.820;2023-02-13T06:01:09;18.77;;;7.53;;
70967;SDS011;58629;48.808;8.820;2023-02-13T06:03:34;17.47;;;7.53;;
70967;SDS011;58629;48.808;8.820;2023-02-13T06:06:00;17.23;;;7.43;;
70967;SDS011;58629;48.808;8.820;2023-02-13T06:08:25;18.00;;;7.72;;
70967;SDS011;58629;48.808;8.820;2023-02-13T06:10:50;19.27;;;8.20;;
70967;SDS011;58629;48.808;8.820;2023-02-13T06:13:16;20.73;;;8.83;;
70967;SDS011;58629;48.808;8.820;2023-02-13T06:15:42;21.60;;;8.80;;
70967;SDS011;58629;48.808;8.820;2023-02-13T06:18:08;20.70;;;8.90;;
70967;SDS011;58629;48.808;8.820;2023-02-13T06:20:34;19.73;;;8.07;;
70967;SDS011;58629;48.808;8.820;2023-02-13T06:23:00;18.67;;;8.50;;
70967;SDS011;58629;48.808;8.820;2023-02-13T06:25:25;20.33;;;8.33;;
70967;SDS011;58629;48.808;8.820;2023-02-13T06:27:51;17.85;;;8.07;;
70967;SDS011;58629;48.808;8.820;2023-02-13T06:30:17;16.40;;;7.57;;
70967;SDS011;58629;48.808;8.820;2023-02-13T06:32:43;19.38;;;7.97;;
70967;SDS011;58629;48.808;8.820;2023-02-13T06:35:10;20.20;;;8.30;;
70967;SDS011;58629;48.808;8.820;2023-02-13T06:37:35;17.10;;;7.20;;
70967;SDS011;58629;48.808;8.820;2023-02-13T06:40:01;15.10;;;7.13;;
70967;SDS011;58629;48.808;8.820;2023-02-13T06:42:26;15.93;;;7.03;;
70967;SDS011;58629;48.808;8.820;2023-02-13T06:44:51;17.33;;;7.10;;
70967;SDS011;58629;48.808;8.820;2023-02-13T06:47:17;18.67;;;7.33;;
70967;SDS011;58629;48.808;8.820;2023-02-13T06:49:42;17.83;;;7.20;;
70967;SDS011;58629;48.808;8.820;2023-02-13T06:52:07;15.17;;;6.53;;
70967;SDS011;58629;48.808;8.820;2023-02-13T06:54:32;16.97;;;7.63;;
70967;SDS011;58629;48.808;8.820;2023-02-13T06:56:58;16.83;;;7.53;;
70967;SDS011;58629;48.808;8.820;2023-02-13T06:59:23;18.02;;;7.93;;
70967;SDS011;58629;48.808;8.820;2023-02-13T07:01:49;19.83;;;8.60;;
70967;SDS011;58629;48.808;8.820;2023-02-13T07:04:14;19.77;;;8.23;;
70967;SDS011;58629;48.808;8.820;2023-02-13T07:06:39;18.27;;;8.10;;
70967;SDS011;58629;48.808;8.820;2023-02-13T07:09:05;18.90;;;8.40;;
70967;SDS011;58629;48.808;8.820;2023-02-13T07:11:30;19.13;;;8.33;;
70967;SDS011;58629;48.808;8.820;2023-02-13T07:13:55;16.43;;;7.77;;
70967;SDS011;58629;48.808;8.820;2023-02-13T07:16:21;15.70;;;7.50;;
70967;SDS011;58629;48.808;8.820;2023-02-13T07:18:46;17.23;;;8.45;;
70967;SDS011;58629;48.808;8.820;2023-02-13T07:21:12;20.40;;;8.87;;
70967;SDS011;58629;48.808;8.820;2023-02-13T07:23:37;20.03;;;8.70;;
70967;SDS011;58629;48.808;8.820;2023-02-13T07:26:03;23.83;;;10.07;;
70967;SDS011;58629;48.808;8.820;2023-02-13T07:28:28;20.75;;;9.25;;
70967;SDS011;58629;48.808;8.820;2023-02-13T07:30:54;21.03;;;9.50;;
70967;SDS011;58629;48.808;8.820;2023-02-13T07:33:20;21.05;;;8.68;;
70967;SDS011;58629;48.808;8.820;2023-02-13T07:35:47;17.25;;;7.97;;
70967;SDS011;58629;48.808;8.820;2023-02-13T07:38:14;16.40;;;7.37;;
70967;SDS011;58629;48.808;8.820;2023-02-13T07:40:39;17.33;;;7.75;;
70967;SDS011;58629;48.808;8.820;2023-02-13T07:43:05;22.57;;;9.10;;
70967;SDS011;58629;48.808;8.820;2023-02-13T07:45:30;20.77;;;9.07;;
70967;SDS011;58629;48.808;8.820;2023-02-13T07:47:56;19.55;;;8.45;;
70967;SDS011;58629;48.808;8.820;2023-02-13T07:50:21;22.25;;;10.43;;
70967;SDS011;58629;48.808;8.820;2023-02-13T07:52:56;20.63;;;9.50;;
70967;SDS011;58629;48.808;8.820;2023-02-13T07:55:24;23.17;;;10.23;;
70967;SDS011;58629;48.808;8.820;2023-02-13T07:57:50;24.25;;;9.95;;
70967;SDS011;58629;48.808;8.820;2023-02-13T08:00:16;21.83;;;9.07;;
70967;SDS011;58629;48.808;8.820;2023-02-13T08:02:42;21.17;;;9.38;;
70967;SDS011;58629;48.808;8.820;2023-02-13T08:05:07;18.90;;;9.00;;
70967;SDS011;58629;48.808;8.820;2023-02-13T08:07:33;22.40;;;9.60;;
70967;SDS011;58629;48.808;8.820;2023-02-13T08:09:58;21.43;;;9.80;;
70967;SDS011;58629;48.808;8.820;2023-02-13T08:12:43;20.27;;;9.38;;
70967;SDS011;58629;48.808;8.820;2023-02-13T08:15:10;23.13;;;9.97;;
70967;SDS011;58629;48.808;8.820;2023-02-13T08:17:36;24.52;;;10.93;;
70967;SDS011;58629;48.808;8.820;2023-02-13T08:20:02;25.87;;;10.67;;
70967;SDS011;58629;48.808;8.820;2023-02-13T08:22:27;24.57;;;10.30;;
70967;SDS011;58629;48.808;8.820;2023-02-13T08:24:52;22.50;;;10.47;;
70967;SDS011;58629;48.808;8.820;2023-02-13T08:27:18;24.17;;;10.45;;
70967;SDS011;58629;48.808;8.820;2023-02-13T08:29:43;24.77;;;10.77;;
70967;SDS011;58629;48.808;8.820;2023-02-13T08:32:08;24.47;;;10.37;;
70967;SDS011;58629;48.808;8.820;2023-02-13T08:34:34;27.37;;;11.47;;
70967;SDS011;58629;48.808;8.820;2023-02-13T08:37:00;25.17;;;11.70;;
70967;SDS011;58629;48.808;8.820;2023-02-13T08:39:26;25.88;;;11.35;;
70967;SDS011;58629;48.808;8.820;2023-02-13T08:41:51;23.37;;;10.67;;
70967;SDS011;58629;48.808;8.820;2023-02-13T08:44:16;21.57;;;10.17;;
70967;SDS011;58629;48.808;8.820;2023-02-13T08:46:41;26.83;;;11.50;;
70967;SDS011;58629;48.808;8.820;2023-02-13T08:49:07;25.23;;;11.07;;
70967;SDS011;58629;48.808;8.820;2023-02-13T08:51:32;25.27;;;11.23;;
70967;SDS011;58629;48.808;8.820;2023-02-13T08:53:57;26.67;;;11.70;;
70967;SDS011;58629;48.808;8.820;2023-02-13T08:56:23;31.57;;;13.23;;
70967;SDS011;58629;48.808;8.820;2023-02-13T08:58:48;31.83;;;12.93;;
70967;SDS011;58629;48.808;8.820;2023-02-13T09:01:14;29.00;;;12.18;;
70967;SDS011;58629;48.808;8.820;2023-02-13T09:03:40;25.33;;;11.80;;
70967;SDS011;58629;48.808;8.820;2023-02-13T09:06:05;21.98;;;10.57;;
70967;SDS011;58629;48.808;8.820;2023-02-13T09:08:31;19.10;;;9.30;;
70967;SDS011;58629;48.808;8.820;2023-02-13T09:10:59;22.40;;;9.70;;
70967;SDS011;58629;48.808;8.820;2023-02-13T09:13:25;19.02;;;9.02;;
70967;SDS011;58629;48.808;8.820;2023-02-13T09:15:51;16.03;;;8.17;;
70967;SDS011;58629;48.808;8.820;2023-02-13T09:18:17;15.43;;;7.30;;
70967;SDS011;58629;48.808;8.820;2023-02-13T09:20:42;13.75;;;7.68;;
70967;SDS011;58629;48.808;8.820;2023-02-13T09:23:07;12.25;;;7.03;;
70967;SDS011;58629;48.808;8.820;2023-02-13T09:25:32;13.77;;;6.88;;
70967;SDS011;58629;48.808;8.820;2023-02-13T09:27:58;12.88;;;6.35;;
70967;SDS011;58629;48.808;8.820;2023-02-13T09:30:23;11.20;;;6.40;;
70967;SDS011;58629;48.808;8.820;2023-02-13T09:32:52;11.93;;;6.33;;
70967;SDS011;58629;48.808;8.820;2023-02-13T09:35:19;11.80;;;6.60;;
70967;SDS011;58629;48.808;8.820;2023-02-13T09:37:45;14.03;;;7.80;;
70967;SDS011;58629;48.808;8.820;2023-02-13T09:40:15;14.50;;;8.07;;
70967;SDS011;58629;48.808;8.820;2023-02-13T09:42:44;12.70;;;6.88;;
70967;SDS011;58629;48.808;8.820;2023-02-13T09:45:10;12.32;;;7.10;;
70967;SDS011;58629;48.808;8.820;2023-02-13T09:47:38;12.63;;;7.13;;
70967;SDS011;58629;48.808;8.820;2023-02-13T09:50:10;11.15;;;6.70;;
70967;SDS011;58629;48.808;8.820;2023-02-13T09:52:42;11.80;;;6.50;;
70967;SDS011;58629;48.808;8.820;2023-02-13T09:55:16;12.18;;;6.68;;
70967;SDS011;58629;48.808;8.820;2023-02-13T10:00:39;15.00;;;7.60;;
70967;SDS011;58629;48.808;8.820;2023-02-13T10:08:54;12.40;;;6.93;;
70967;SDS011;58629;48.808;8.820;2023-02-13T10:19:42;10.57;;;5.85;;
70967;SDS011;58629;48.808;8.820;2023-02-13T10:22:16;11.15;;;6.63;;
70967;SDS011;58629;48.808;8.820;2023-02-13T10:24:48;10.07;;;6.05;;
70967;SDS011;58629;48.808;8.820;2023-02-13T10:34:56;9.50;;;6.00;;
70967;SDS011;58629;48.808;8.820;2023-02-13T10:37:26;11.13;;;6.72;;
70967;SDS011;58629;48.808;8.820;2023-02-13T10:39:52;10.27;;;6.03;;
70967;SDS011;58629;48.808;8.820;2023-02-13T10:45:09;8.85;;;5.75;;
70967;SDS011;58629;48.808;8.820;2023-02-13T10:48:11;11.77;;;5.90;;
70967;SDS011;58629;48.808;8.820;2023-02-13T10:53:58;8.80;;;5.40;;
70967;SDS011;58629;48.808;8.820;2023-02-13T11:01:52;8.65;;;5.10;;
70967;SDS011;58629;48.808;8.820;2023-02-13T11:04:21;7.65;;;4.90;;
70967;SDS011;58629;48.808;8.820;2023-02-13T11:06:54;8.83;;;5.50;;
70967;SDS011;58629;48.808;8.820;2023-02-13T11:09:21;9.57;;;5.60;;
70967;SDS011;58629;48.808;8.820;2023-02-13T11:11:47;8.88;;;5.50;;
70967;SDS011;58629;48.808;8.820;2023-02-13T11:14:15;8.65;;;5.35;;
70967;SDS011;58629;48.808;8.820;2023-02-13T11:19:13;8.73;;;5.50;;
70967;SDS011;58629;48.808;8.820;2023-02-13T11:21:42;10.65;;;6.22;;
70967;SDS011;58629;48.808;8.820;2023-02-13T11:24:15;9.75;;;5.95;;
70967;SDS011;58629;48.808;8.820;2023-02-13T11:26:43;9.90;;;5.93;;
70967;SDS011;58629;48.808;8.820;2023-02-13T11:29:16;8.43;;;5.00;;
70967;SDS011;58629;48.808;8.820;2023-02-13T11:31:46;8.45;;;5.18;;
70967;SDS011;58629;48.808;8.820;2023-02-13T11:34:28;10.18;;;6.03;;
70967;SDS011;58629;48.808;8.820;2023-02-13T11:39:36;11.40;;;6.93;;
70967;SDS011;58629;48.808;8.820;2023-02-13T11:42:01;12.30;;;6.38;;
70967;SDS011;58629;48.808;8.820;2023-02-13T11:44:30;9.60;;;5.80;;
70967;SDS011;58629;48.808;8.820;2023-02-13T11:47:00;10.02;;;6.00;;
70967;SDS011;58629;48.808;8.820;2023-02-13T11:49:27;10.73;;;6.13;;
70967;SDS011;58629;48.808;8.820;2023-02-13T11:51:57;9.90;;;6.03;;
70967;SDS011;58629;48.808;8.820;2023-02-13T11:54:35;11.02;;;6.20;;
70967;SDS011;58629;48.808;8.820;2023-02-13T11:59:47;8.82;;;5.00;;
70967;SDS011;58629;48.808;8.820;2023-02-13T12:04:44;9.43;;;5.60;;
70967;SDS011;58629;48.808;8.820;2023-02-13T12:09:54;8.82;;;5.18;;
70967;SDS011;58629;48.808;8.820;2023-02-13T12:12:36;8.68;;;5.07;;
70967;SDS011;58629;48.808;8.820;2023-02-13T12:15:16;10.33;;;5.87;;
70967;SDS011;58629;48.808;8.820;2023-02-13T12:18:10;9.80;;;5.40;;
70967;SDS011;58629;48.808;8.820;2023-02-13T12:20:58;10.38;;;5.80;;
70967;SDS011;58629;48.808;8.820;2023-02-13T12:23:44;10.38;;;4.95;;
70967;SDS011;58629;48.808;8.820;2023-02-13T12:26:37;10.30;;;5.43;;
70967;SDS011;58629;48.808;8.820;2023-02-13T12:34:18;8.00;;;4.93;;
70967;SDS011;58629;48.808;8.820;2023-02-13T12:37:01;8.80;;;4.90;;
70967;SDS011;58629;48.808;8.820;2023-02-13T12:39:32;8.07;;;4.78;;
70967;SDS011;58629;48.808;8.820;2023-02-13T12:42:07;10.10;;;5.83;;
70967;SDS011;58629;48.808;8.820;2023-02-13T12:44:52;9.95;;;5.63;;
70967;SDS011;58629;48.808;8.820;2023-02-13T12:58:45;8.60;;;4.88;;
70967;SDS011;58629;48.808;8.820;2023-02-13T13:07:18;21.85;;;10.48;;
70967;SDS011;58629;48.808;8.820;2023-02-13T13:10:09;12.23;;;6.77;;
70967;SDS011;58629;48.808;8.820;2023-02-13T13:13:41;8.75;;;5.20;;
70967;SDS011;58629;48.808;8.820;2023-02-13T13:22:04;7.88;;;4.82;;
70967;SDS011;58629;48.808;8.820;2023-02-13T13:27:22;5.47;;;3.78;;
70967;SDS011;58629;48.808;8.820;2023-02-13T13:29:55;6.20;;;3.88;;
70967;SDS011;58629;48.808;8.820;2023-02-13T13:32:23;9.05;;;5.53;;
70967;SDS011;58629;48.808;8.820;2023-02-13T13:34:50;8.32;;;5.10;;
70967;SDS011;58629;48.808;8.820;2023-02-13T13:47:46;6.07;;;3.77;;
70967;SDS011;58629;48.808;8.820;2023-02-13T13:50:23;6.53;;;4.28;;
70967;SDS011;58629;48.808;8.820;2023-02-13T13:53:04;6.43;;;4.00;;
70967;SDS011;58629;48.808;8.820;2023-02-13T14:01:04;7.07;;;4.50;;
70967;SDS011;58629;48.808;8.820;2023-02-13T14:03:41;6.00;;;3.85;;
70967;SDS011;58629;48.808;8.820;2023-02-13T14:06:09;6.22;;;3.92;;
70967;SDS011;58629;48.808;8.820;2023-02-13T14:11:04;8.10;;;5.33;;
70967;SDS011;58629;48.808;8.820;2023-02-13T14:13:35;7.10;;;4.85;;
70967;SDS011;58629;48.808;8.820;2023-02-13T14:16:03;9.73;;;5.70;;
70967;SDS011;58629;48.808;8.820;2023-02-13T14:18:30;10.02;;;6.30;;
70967;SDS011;58629;48.808;8.820;2023-02-13T14:21:00;10.98;;;6.97;;
70967;SDS011;58629;48.808;8.820;2023-02-13T14:28:42;9.60;;;5.57;;
70967;SDS011;58629;48.808;8.820;2023-02-13T14:36:35;5.90;;;4.10;;
70967;SDS011;58629;48.808;8.820;2023-02-13T14:44:31;9.20;;;6.30;;
70967;SDS011;58629;48.808;8.820;2023-02-13T14:47:02;8.45;;;5.32;;
70967;SDS011;58629;48.808;8.820;2023-02-13T14:49:35;6.55;;;4.30;;
70967;SDS011;58629;48.808;8.820;2023-02-13T14:52:05;6.28;;;4.00;;
70967;SDS011;58629;48.808;8.820;2023-02-13T14:54:45;6.50;;;3.80;;
70967;SDS011;58629;48.808;8.820;2023-02-13T14:57:18;6.60;;;4.10;;
70967;SDS011;58629;48.808;8.820;2023-02-13T14:59:48;6.18;;;4.10;;
70967;SDS011;58629;48.808;8.820;2023-02-13T15:02:19;5.53;;;3.90;;
70967;SDS011;58629;48.808;8.820;2023-02-13T15:04:48;6.15;;;3.90;;
70967;SDS011;58629;48.808;8.820;2023-02-13T15:07:31;7.82;;;4.90;;
70967;SDS011;58629;48.808;8.820;2023-02-13T15:10:05;6.50;;;4.32;;
70967;SDS011;58629;48.808;8.820;2023-02-13T15:12:59;6.40;;;4.28;;
70967;SDS011;58629;48.808;8.820;2023-02-13T15:15:30;5.78;;;4.15;;
70967;SDS011;58629;48.808;8.820;2023-02-13T15:18:07;5.70;;;3.78;;
70967;SDS011;58629;48.808;8.820;2023-02-13T15:20:36;6.78;;;3.95;;
70967;SDS011;58629;48.808;8.820;2023-02-13T15:23:04;6.93;;;4.22;;
70967;SDS011;58629;48.808;8.820;2023-02-13T15:27:58;6.78;;;4.00;;
70967;SDS011;58629;48.808;8.820;2023-02-13T15:30:28;6.32;;;3.75;;
70967;SDS011;58629;48.808;8.820;2023-02-13T15:32:59;4.90;;;3.33;;
70967;SDS011;58629;48.808;8.820;2023-02-13T15:35:30;5.15;;;3.30;;
70967;SDS011;58629;48.808;8.820;2023-02-13T15:37:57;5.35;;;2.92;;
70967;SDS011;58629;48.808;8.820;2023-02-13T15:40:27;5.38;;;3.35;;
70967;SDS011;58629;48.808;8.820;2023-02-13T15:42:55;4.63;;;3.20;;
70967;SDS011;58629;48.808;8.820;2023-02-13T15:45:22;4.80;;;3.50;;
70967;SDS011;58629;48.808;8.820;2023-02-13T15:47:50;5.15;;;3.40;;
70967;SDS011;58629;48.808;8.820;2023-02-13T15:50:35;4.93;;;3.40;;
70967;SDS011;58629;48.808;8.820;2023-02-13T15:53:01;5.22;;;3.60;;
70967;SDS011;58629;48.808;8.820;2023-02-13T15:55:30;5.50;;;3.50;;
70967;SDS011;58629;48.808;8.820;2023-02-13T15:58:00;5.55;;;3.45;;
70967;SDS011;58629;48.808;8.820;2023-02-13T16:00:27;6.07;;;3.50;;
70967;SDS011;58629;48.808;8.820;2023-02-13T16:02:56;5.60;;;3.60;;
70967;SDS011;58629;48.808;8.820;2023-02-13T16:05:23;6.30;;;3.60;;
70967;SDS011;58629;48.808;8.820;2023-02-13T16:07:55;4.90;;;3.20;;
70967;SDS011;58629;48.808;8.820;2023-02-13T16:12:55;4.60;;;3.10;;
70967;SDS011;58629;48.808;8.820;2023-02-13T16:15:23;4.30;;;2.90;;
70967;SDS011;58629;48.808;8.820;2023-02-13T16:17:52;4.50;;;2.78;;
70967;SDS011;58629;48.808;8.820;2023-02-13T16:20:20;5.07;;;3.38;;
70967;SDS011;58629;48.808;8.820;2023-02-13T16:27:48;5.28;;;3.65;;
70967;SDS011;58629;48.808;8.820;2023-02-13T16:30:36;6.00;;;3.90;;
70967;SDS011;58629;48.808;8.820;2023-02-13T16:40:51;4.90;;;3.20;;
70967;SDS011;58629;48.808;8.820;2023-02-13T16:43:52;6.10;;;3.65;;
70967;SDS011;58629;48.808;8.820;2023-02-13T16:46:27;6.10;;;3.80;;
70967;SDS011;58629;48.808;8.820;2023-02-13T16:51:22;7.83;;;4.80;;
70967;SDS011;58629;48.808;8.820;2023-02-13T16:53:59;6.83;;;4.53;;
70967;SDS011;58629;48.808;8.820;2023-02-13T16:59:29;8.82;;;5.65;;
70967;SDS011;58629;48.808;8.820;2023-02-13T17:04:53;8.30;;;5.40;;
70967;SDS011;58629;48.808;8.820;2023-02-13T17:07:33;9.27;;;5.80;;
70967;SDS011;58629;48.808;8.820;2023-02-13T17:10:03;9.13;;;5.65;;
70967;SDS011;58629;48.808;8.820;2023-02-13T17:12:29;8.75;;;5.75;;
70967;SDS011;58629;48.808;8.820;2023-02-13T17:14:56;8.70;;;5.70;;
70967;SDS011;58629;48.808;8.820;2023-02-13T17:17:23;8.65;;;5.53;;
70967;SDS011;58629;48.808;8.820;2023-02-13T17:19:52;9.33;;;5.57;;
70967;SDS011;58629;48.808;8.820;2023-02-13T17:22:22;9.85;;;5.70;;
70967;SDS011;58629;48.808;8.820;2023-02-13T17:24:57;10.27;;;6.22;;
70967;SDS011;58629;48.808;8.820;2023-02-13T17:27:24;11.27;;;6.38;;
70967;SDS011;58629;48.808;8.820;2023-02-13T17:29:49;13.23;;;7.10;;
70967;SDS011;58629;48.808;8.820;2023-02-13T17:32:18;10.93;;;6.17;;
70967;SDS011;58629;48.808;8.820;2023-02-13T17:34:47;11.32;;;6.30;;
70967;SDS011;58629;48.808;8.820;2023-02-13T17:37:16;11.30;;;6.13;;
70967;SDS011;58629;48.808;8.820;2023-02-13T17:39:49;10.00;;;5.40;;
70967;SDS011;58629;48.808;8.820;2023-02-13T17:42:19;8.23;;;4.90;;
70967;SDS011;58629;48.808;8.820;2023-02-13T17:44:45;8.93;;;4.80;;
70967;SDS011;58629;48.808;8.820;2023-02-13T17:47:11;8.80;;;4.85;;
70967;SDS011;58629;48.808;8.820;2023-02-13T17:49:36;7.10;;;4.10;;
70967;SDS011;58629;48.808;8.820;2023-02-13T17:52:02;6.50;;;3.83;;
70967;SDS011;58629;48.808;8.820;2023-02-13T17:54:27;7.70;;;3.90;;
70967;SDS011;58629;48.808;8.820;2023-02-13T17:56:53;8.18;;;4.20;;
70967;SDS011;58629;48.808;8.820;2023-02-13T17:59:18;8.43;;;4.30;;
70967;SDS011;58629;48.808;8.820;2023-02-13T18:01:44;6.90;;;3.80;;